sensor_id;sensor_type;location;lat;lon;timestamp;temperature;humidity
28484;DHT22;15704;48.834;8.736;2022-07-30T00:03:25;17.90;99.90
28484;DHT22;15704;48.834;8.736;2022-07-30T00:07:10;17.90;99.90
28484;DHT22;15704;48.834;8.736;2022-07-30T00:10:53;17.80;99.90
28484;DHT22;15704;48.834;8.736;2022-07-30T00:14:36;17.80;99.90
28484;DHT22;15704;48.834;8.736;2022-07-30T00:18:18;17.80;99.90
28484;DHT22;15704;48.834;8.736;2022-07-30T00:22:03;17.80;99.90
28484;DHT22;15704;48.834;8.736;2022-07-30T00:25:47;17.70;99.90
28484;DHT22;15704;48.834;8.736;2022-07-30T00:29:29;17.60;99.90
28484;DHT22;15704;48.834;8.736;2022-07-30T00:33:12;17.50;99.90
28484;DHT22;15704;48.834;8.736;2022-07-30T00:36:55;17.50;99.90
28484;DHT22;15704;48.834;8.736;2022-07-30T00:40:39;17.40;99.90
28484;DHT22;15704;48.834;8.736;2022-07-30T00:44:23;17.40;99.90
28484;DHT22;15704;48.834;8.736;2022-07-30T00:48:06;17.30;99.90
28484;DHT22;15704;48.834;8.736;2022-07-30T00:51:50;17.20;99.90
28484;DHT22;15704;48.834;8.736;2022-07-30T00:55:33;17.20;99.90
28484;DHT22;15704;48.834;8.736;2022-07-30T00:59:15;17.10;99.90
28484;DHT22;15704;48.834;8.736;2022-07-30T01:02:59;17.00;99.90
28484;DHT22;15704;48.834;8.736;2022-07-30T01:06:41;17.00;99.90
28484;DHT22;15704;48.834;8.736;2022-07-30T01:10:24;17.00;99.90
28484;DHT22;15704;48.834;8.736;2022-07-30T01:14:08;17.00;99.90
28484;DHT22;15704;48.834;8.736;2022-07-30T01:17:51;17.00;99.90
28484;DHT22;15704;48.834;8.736;2022-07-30T01:21:38;17.00;99.90
28484;DHT22;15704;48.834;8.736;2022-07-30T01:25:39;16.90;99.90
28484;DHT22;15704;48.834;8.736;2022-07-30T01:29:23;16.90;99.90
28484;DHT22;15704;48.834;8.736;2022-07-30T01:33:07;16.90;99.90
28484;DHT22;15704;48.834;8.736;2022-07-30T01:36:52;16.80;99.90
28484;DHT22;15704;48.834;8.736;2022-07-30T01:40:36;16.80;99.90
28484;DHT22;15704;48.834;8.736;2022-07-30T01:44:21;16.80;99.90
28484;DHT22;15704;48.834;8.736;2022-07-30T01:48:08;16.80;99.90
28484;DHT22;15704;48.834;8.736;2022-07-30T01:51:53;16.70;99.90
28484;DHT22;15704;48.834;8.736;2022-07-30T01:55:39;16.70;99.90
28484;DHT22;15704;48.834;8.736;2022-07-30T01:59:24;16.60;99.90
28484;DHT22;15704;48.834;8.736;2022-07-30T02:03:09;16.60;99.90
28484;DHT22;15704;48.834;8.736;2022-07-30T02:07:00;16.50;99.90
28484;DHT22;15704;48.834;8.736;2022-07-30T02:10:49;16.50;99.90
28484;DHT22;15704;48.834;8.736;2022-07-30T02:14:38;16.40;99.90
28484;DHT22;15704;48.834;8.736;2022-07-30T02:18:26;16.40;99.90
28484;DHT22;15704;48.834;8.736;2022-07-30T02:22:12;16.30;99.90
28484;DHT22;15704;48.834;8.736;2022-07-30T02:25:58;16.30;99.90
28484;DHT22;15704;48.834;8.736;2022-07-30T02:29:43;16.20;99.90
28484;DHT22;15704;48.834;8.736;2022-07-30T02:33:29;16.20;99.90
28484;DHT22;15704;48.834;8.736;2022-07-30T02:37:14;16.20;99.90
28484;DHT22;15704;48.834;8.736;2022-07-30T02:41:19;16.20;99.90
28484;DHT22;15704;48.834;8.736;2022-07-30T02:45:06;16.30;99.90
28484;DHT22;15704;48.834;8.736;2022-07-30T02:48:50;16.40;99.90
28484;DHT22;15704;48.834;8.736;2022-07-30T02:52:35;16.30;99.90
28484;DHT22;15704;48.834;8.736;2022-07-30T02:56:18;16.30;99.90
28484;DHT22;15704;48.834;8.736;2022-07-30T03:00:03;16.30;99.90
28484;DHT22;15704;48.834;8.736;2022-07-30T03:03:47;16.20;99.90
28484;DHT22;15704;48.834;8.736;2022-07-30T03:07:31;16.20;99.90
28484;DHT22;15704;48.834;8.736;2022-07-30T03:11:18;16.20;99.90
28484;DHT22;15704;48.834;8.736;2022-07-30T03:15:01;16.10;99.90
28484;DHT22;15704;48.834;8.736;2022-07-30T03:18:44;16.10;99.90
28484;DHT22;15704;48.834;8.736;2022-07-30T03:22:30;16.10;99.90
28484;DHT22;15704;48.834;8.736;2022-07-30T03:26:14;16.10;99.90
28484;DHT22;15704;48.834;8.736;2022-07-30T03:29:58;16.20;99.90
28484;DHT22;15704;48.834;8.736;2022-07-30T03:33:43;16.20;99.90
28484;DHT22;15704;48.834;8.736;2022-07-30T03:37:29;16.20;99.90
28484;DHT22;15704;48.834;8.736;2022-07-30T03:41:12;16.20;99.90
28484;DHT22;15704;48.834;8.736;2022-07-30T03:44:56;16.20;99.90
28484;DHT22;15704;48.834;8.736;2022-07-30T03:48:39;16.20;99.90
28484;DHT22;15704;48.834;8.736;2022-07-30T03:52:22;16.30;99.90
28484;DHT22;15704;48.834;8.736;2022-07-30T03:56:07;16.30;99.90
28484;DHT22;15704;48.834;8.736;2022-07-30T03:59:49;16.30;99.90
28484;DHT22;15704;48.834;8.736;2022-07-30T04:03:33;16.30;99.90
28484;DHT22;15704;48.834;8.736;2022-07-30T04:07:16;16.20;99.90
28484;DHT22;15704;48.834;8.736;2022-07-30T04:10:59;16.20;99.90
28484;DHT22;15704;48.834;8.736;2022-07-30T04:14:43;16.30;99.90
28484;DHT22;15704;48.834;8.736;2022-07-30T04:18:28;16.30;99.90
28484;DHT22;15704;48.834;8.736;2022-07-30T04:22:12;16.30;99.90
28484;DHT22;15704;48.834;8.736;2022-07-30T04:25:58;16.40;99.90
28484;DHT22;15704;48.834;8.736;2022-07-30T04:29:42;16.40;99.90
28484;DHT22;15704;48.834;8.736;2022-07-30T04:33:25;16.50;99.90
28484;DHT22;15704;48.834;8.736;2022-07-30T04:37:08;16.60;99.90
28484;DHT22;15704;48.834;8.736;2022-07-30T04:40:50;16.70;99.90
28484;DHT22;15704;48.834;8.736;2022-07-30T04:44:33;16.80;99.90
28484;DHT22;15704;48.834;8.736;2022-07-30T04:48:17;17.00;99.90
28484;DHT22;15704;48.834;8.736;2022-07-30T04:52:00;17.10;99.90
28484;DHT22;15704;48.834;8.736;2022-07-30T04:55:45;17.20;99.90
28484;DHT22;15704;48.834;8.736;2022-07-30T04:59:28;17.20;99.90
28484;DHT22;15704;48.834;8.736;2022-07-30T05:03:13;17.30;99.90
28484;DHT22;15704;48.834;8.736;2022-07-30T05:06:58;17.40;99.90
28484;DHT22;15704;48.834;8.736;2022-07-30T05:10:42;17.50;99.90
28484;DHT22;15704;48.834;8.736;2022-07-30T05:14:26;17.60;99.90
28484;DHT22;15704;48.834;8.736;2022-07-30T05:18:09;17.70;99.90
28484;DHT22;15704;48.834;8.736;2022-07-30T05:21:51;17.90;99.90
28484;DHT22;15704;48.834;8.736;2022-07-30T05:25:35;18.00;99.90
28484;DHT22;15704;48.834;8.736;2022-07-30T05:29:18;18.10;99.90
28484;DHT22;15704;48.834;8.736;2022-07-30T05:33:01;18.30;99.90
28484;DHT22;15704;48.834;8.736;2022-07-30T05:36:55;18.30;99.90
28484;DHT22;15704;48.834;8.736;2022-07-30T05:40:40;18.50;99.90
28484;DHT22;15704;48.834;8.736;2022-07-30T05:44:23;18.50;99.90
28484;DHT22;15704;48.834;8.736;2022-07-30T05:48:05;18.60;99.90
28484;DHT22;15704;48.834;8.736;2022-07-30T05:51:48;18.70;99.90
28484;DHT22;15704;48.834;8.736;2022-07-30T05:55:31;18.80;99.90
28484;DHT22;15704;48.834;8.736;2022-07-30T05:59:17;19.00;99.90
28484;DHT22;15704;48.834;8.736;2022-07-30T06:03:02;19.00;99.90
28484;DHT22;15704;48.834;8.736;2022-07-30T06:06:44;19.10;99.90
28484;DHT22;15704;48.834;8.736;2022-07-30T06:10:28;19.20;99.90
28484;DHT22;15704;48.834;8.736;2022-07-30T06:14:11;19.30;99.90
28484;DHT22;15704;48.834;8.736;2022-07-30T06:17:55;19.50;99.90
28484;DHT22;15704;48.834;8.736;2022-07-30T06:21:42;19.50;99.90
28484;DHT22;15704;48.834;8.736;2022-07-30T06:25:46;19.50;99.90
28484;DHT22;15704;48.834;8.736;2022-07-30T06:29:28;19.70;99.90
28484;DHT22;15704;48.834;8.736;2022-07-30T06:33:12;19.90;99.90
28484;DHT22;15704;48.834;8.736;2022-07-30T06:36:55;20.00;99.90
28484;DHT22;15704;48.834;8.736;2022-07-30T06:40:38;20.10;99.90
28484;DHT22;15704;48.834;8.736;2022-07-30T06:44:21;20.40;99.90
28484;DHT22;15704;48.834;8.736;2022-07-30T06:48:04;20.20;99.90
28484;DHT22;15704;48.834;8.736;2022-07-30T06:51:48;20.30;99.90
28484;DHT22;15704;48.834;8.736;2022-07-30T06:55:31;20.40;99.90
28484;DHT22;15704;48.834;8.736;2022-07-30T06:59:14;20.40;99.90
28484;DHT22;15704;48.834;8.736;2022-07-30T07:02:58;20.50;99.90
28484;DHT22;15704;48.834;8.736;2022-07-30T07:06:41;20.60;99.90
28484;DHT22;15704;48.834;8.736;2022-07-30T07:10:25;20.70;99.90
28484;DHT22;15704;48.834;8.736;2022-07-30T07:14:08;20.80;99.90
28484;DHT22;15704;48.834;8.736;2022-07-30T07:17:51;21.00;99.90
28484;DHT22;15704;48.834;8.736;2022-07-30T07:21:33;21.20;99.90
28484;DHT22;15704;48.834;8.736;2022-07-30T07:25:16;21.40;99.90
28484;DHT22;15704;48.834;8.736;2022-07-30T07:29:00;21.70;99.90
28484;DHT22;15704;48.834;8.736;2022-07-30T07:32:45;21.90;99.90
28484;DHT22;15704;48.834;8.736;2022-07-30T07:36:28;22.30;99.90
28484;DHT22;15704;48.834;8.736;2022-07-30T07:40:11;22.40;99.90
28484;DHT22;15704;48.834;8.736;2022-07-30T07:43:53;22.60;99.90
28484;DHT22;15704;48.834;8.736;2022-07-30T07:47:43;22.50;99.40
28484;DHT22;15704;48.834;8.736;2022-07-30T07:51:32;22.70;98.60
28484;DHT22;15704;48.834;8.736;2022-07-30T07:55:28;22.60;97.90
28484;DHT22;15704;48.834;8.736;2022-07-30T07:59:14;22.20;98.70
28484;DHT22;15704;48.834;8.736;2022-07-30T08:02:58;22.40;97.30
28484;DHT22;15704;48.834;8.736;2022-07-30T08:06:41;22.20;97.90
28484;DHT22;15704;48.834;8.736;2022-07-30T08:10:24;21.90;97.50
28484;DHT22;15704;48.834;8.736;2022-07-30T08:14:07;22.10;97.50
28484;DHT22;15704;48.834;8.736;2022-07-30T08:17:50;22.20;96.90
28484;DHT22;15704;48.834;8.736;2022-07-30T08:21:34;22.30;96.80
28484;DHT22;15704;48.834;8.736;2022-07-30T08:25:16;22.40;96.80
28484;DHT22;15704;48.834;8.736;2022-07-30T08:29:04;22.40;96.70
28484;DHT22;15704;48.834;8.736;2022-07-30T08:32:47;22.30;95.40
28484;DHT22;15704;48.834;8.736;2022-07-30T08:36:30;22.20;95.50
28484;DHT22;15704;48.834;8.736;2022-07-30T08:40:14;22.20;97.10
28484;DHT22;15704;48.834;8.736;2022-07-30T08:44:00;22.60;96.00
28484;DHT22;15704;48.834;8.736;2022-07-30T08:47:44;22.40;95.20
28484;DHT22;15704;48.834;8.736;2022-07-30T08:51:27;22.10;94.50
28484;DHT22;15704;48.834;8.736;2022-07-30T08:55:10;22.10;94.70
28484;DHT22;15704;48.834;8.736;2022-07-30T08:58:54;22.20;95.00
28484;DHT22;15704;48.834;8.736;2022-07-30T09:02:37;22.70;94.90
28484;DHT22;15704;48.834;8.736;2022-07-30T09:06:20;23.10;95.20
28484;DHT22;15704;48.834;8.736;2022-07-30T09:10:03;23.20;93.90
28484;DHT22;15704;48.834;8.736;2022-07-30T09:13:46;23.10;93.50
28484;DHT22;15704;48.834;8.736;2022-07-30T09:17:41;23.10;93.70
28484;DHT22;15704;48.834;8.736;2022-07-30T09:21:25;22.80;94.00
28484;DHT22;15704;48.834;8.736;2022-07-30T09:25:09;22.90;93.20
28484;DHT22;15704;48.834;8.736;2022-07-30T09:28:51;22.70;92.40
28484;DHT22;15704;48.834;8.736;2022-07-30T09:32:45;22.60;93.10
28484;DHT22;15704;48.834;8.736;2022-07-30T09:36:30;23.20;93.00
28484;DHT22;15704;48.834;8.736;2022-07-30T09:40:15;23.50;91.90
28484;DHT22;15704;48.834;8.736;2022-07-30T09:44:01;23.70;92.70
28484;DHT22;15704;48.834;8.736;2022-07-30T09:47:45;23.60;91.40
28484;DHT22;15704;48.834;8.736;2022-07-30T09:51:37;23.50;91.40
28484;DHT22;15704;48.834;8.736;2022-07-30T09:55:37;23.60;91.70
28484;DHT22;15704;48.834;8.736;2022-07-30T09:59:26;23.70;90.70
28484;DHT22;15704;48.834;8.736;2022-07-30T10:03:18;24.10;89.30
28484;DHT22;15704;48.834;8.736;2022-07-30T10:07:21;24.30;89.00
28484;DHT22;15704;48.834;8.736;2022-07-30T10:11:09;24.50;87.40
28484;DHT22;15704;48.834;8.736;2022-07-30T10:14:52;24.10;87.30
28484;DHT22;15704;48.834;8.736;2022-07-30T10:18:37;24.20;88.20
28484;DHT22;15704;48.834;8.736;2022-07-30T10:22:22;24.10;87.50
28484;DHT22;15704;48.834;8.736;2022-07-30T10:26:07;24.00;87.70
28484;DHT22;15704;48.834;8.736;2022-07-30T10:29:51;24.30;88.00
28484;DHT22;15704;48.834;8.736;2022-07-30T10:33:34;24.30;85.90
28484;DHT22;15704;48.834;8.736;2022-07-30T10:37:24;24.10;88.20
28484;DHT22;15704;48.834;8.736;2022-07-30T10:41:15;23.90;88.90
28484;DHT22;15704;48.834;8.736;2022-07-30T10:45:23;23.60;88.10
28484;DHT22;15704;48.834;8.736;2022-07-30T10:49:11;24.10;86.60
28484;DHT22;15704;48.834;8.736;2022-07-30T10:53:00;24.40;86.90
28484;DHT22;15704;48.834;8.736;2022-07-30T10:57:02;24.60;85.70
28484;DHT22;15704;48.834;8.736;2022-07-30T11:01:06;25.10;81.80
28484;DHT22;15704;48.834;8.736;2022-07-30T11:05:20;25.10;83.90
28484;DHT22;15704;48.834;8.736;2022-07-30T11:09:35;24.70;85.60
28484;DHT22;15704;48.834;8.736;2022-07-30T11:13:50;24.50;85.90
28484;DHT22;15704;48.834;8.736;2022-07-30T11:17:57;24.60;85.80
28484;DHT22;15704;48.834;8.736;2022-07-30T11:21:40;24.30;84.40
28484;DHT22;15704;48.834;8.736;2022-07-30T11:25:40;24.50;83.70
28484;DHT22;15704;48.834;8.736;2022-07-30T11:29:38;24.60;84.50
28484;DHT22;15704;48.834;8.736;2022-07-30T11:33:32;24.70;84.70
28484;DHT22;15704;48.834;8.736;2022-07-30T11:37:15;25.20;83.10
28484;DHT22;15704;48.834;8.736;2022-07-30T11:41:13;25.40;81.20
28484;DHT22;15704;48.834;8.736;2022-07-30T11:45:19;25.20;80.50
28484;DHT22;15704;48.834;8.736;2022-07-30T11:49:04;24.90;81.40
28484;DHT22;15704;48.834;8.736;2022-07-30T11:52:49;25.00;81.90
28484;DHT22;15704;48.834;8.736;2022-07-30T11:56:33;24.90;80.30
28484;DHT22;15704;48.834;8.736;2022-07-30T12:00:17;25.30;80.20
28484;DHT22;15704;48.834;8.736;2022-07-30T12:04:02;25.30;80.40
28484;DHT22;15704;48.834;8.736;2022-07-30T12:07:45;25.00;82.50
28484;DHT22;15704;48.834;8.736;2022-07-30T12:11:31;25.50;81.60
28484;DHT22;15704;48.834;8.736;2022-07-30T12:15:29;26.00;81.10
28484;DHT22;15704;48.834;8.736;2022-07-30T12:19:12;25.70;81.10
28484;DHT22;15704;48.834;8.736;2022-07-30T12:22:55;25.60;80.30
28484;DHT22;15704;48.834;8.736;2022-07-30T12:26:37;25.50;78.70
28484;DHT22;15704;48.834;8.736;2022-07-30T12:30:20;25.80;79.80
28484;DHT22;15704;48.834;8.736;2022-07-30T12:34:18;25.60;81.30
28484;DHT22;15704;48.834;8.736;2022-07-30T12:38:01;25.80;82.30
28484;DHT22;15704;48.834;8.736;2022-07-30T12:41:46;26.00;81.30
28484;DHT22;15704;48.834;8.736;2022-07-30T12:45:30;26.40;80.70
28484;DHT22;15704;48.834;8.736;2022-07-30T12:49:34;26.50;80.00
28484;DHT22;15704;48.834;8.736;2022-07-30T12:53:30;26.70;80.00
28484;DHT22;15704;48.834;8.736;2022-07-30T12:57:12;27.20;79.10
28484;DHT22;15704;48.834;8.736;2022-07-30T13:00:56;27.40;77.30
28484;DHT22;15704;48.834;8.736;2022-07-30T13:04:50;27.30;76.40
28484;DHT22;15704;48.834;8.736;2022-07-30T13:08:53;27.00;76.30
28484;DHT22;15704;48.834;8.736;2022-07-30T13:12:36;26.70;76.90
28484;DHT22;15704;48.834;8.736;2022-07-30T13:16:19;26.50;78.70
28484;DHT22;15704;48.834;8.736;2022-07-30T13:20:04;26.80;76.40
28484;DHT22;15704;48.834;8.736;2022-07-30T13:23:47;26.90;75.20
28484;DHT22;15704;48.834;8.736;2022-07-30T13:27:30;26.70;74.60
28484;DHT22;15704;48.834;8.736;2022-07-30T13:31:13;26.80;76.10
28484;DHT22;15704;48.834;8.736;2022-07-30T13:34:56;26.40;75.30
28484;DHT22;15704;48.834;8.736;2022-07-30T13:38:44;26.40;75.40
28484;DHT22;15704;48.834;8.736;2022-07-30T13:42:32;26.40;74.80
28484;DHT22;15704;48.834;8.736;2022-07-30T13:46:15;26.10;75.50
28484;DHT22;15704;48.834;8.736;2022-07-30T13:49:58;26.60;74.80
28484;DHT22;15704;48.834;8.736;2022-07-30T13:53:41;27.20;73.20
28484;DHT22;15704;48.834;8.736;2022-07-30T13:57:25;27.20;72.00
28484;DHT22;15704;48.834;8.736;2022-07-30T14:01:08;26.90;72.10
28484;DHT22;15704;48.834;8.736;2022-07-30T14:04:58;26.90;72.70
28484;DHT22;15704;48.834;8.736;2022-07-30T14:08:47;26.30;72.90
28484;DHT22;15704;48.834;8.736;2022-07-30T14:12:31;26.30;74.80
28484;DHT22;15704;48.834;8.736;2022-07-30T14:16:14;26.60;73.90
28484;DHT22;15704;48.834;8.736;2022-07-30T14:20:17;26.60;74.20
28484;DHT22;15704;48.834;8.736;2022-07-30T14:24:00;26.70;73.60
28484;DHT22;15704;48.834;8.736;2022-07-30T14:27:49;26.70;74.40
28484;DHT22;15704;48.834;8.736;2022-07-30T14:31:32;26.50;72.90
28484;DHT22;15704;48.834;8.736;2022-07-30T14:35:18;26.50;74.10
28484;DHT22;15704;48.834;8.736;2022-07-30T14:39:02;26.40;73.40
28484;DHT22;15704;48.834;8.736;2022-07-30T14:42:45;26.90;73.10
28484;DHT22;15704;48.834;8.736;2022-07-30T14:46:30;27.40;72.30
28484;DHT22;15704;48.834;8.736;2022-07-30T14:50:12;26.90;72.40
28484;DHT22;15704;48.834;8.736;2022-07-30T14:53:55;26.60;73.80
28484;DHT22;15704;48.834;8.736;2022-07-30T14:57:38;26.40;74.90
28484;DHT22;15704;48.834;8.736;2022-07-30T15:01:21;26.70;74.40
28484;DHT22;15704;48.834;8.736;2022-07-30T15:05:06;27.00;73.00
28484;DHT22;15704;48.834;8.736;2022-07-30T15:08:49;27.00;70.90
28484;DHT22;15704;48.834;8.736;2022-07-30T15:12:33;27.20;71.20
28484;DHT22;15704;48.834;8.736;2022-07-30T15:16:18;27.20;70.50
28484;DHT22;15704;48.834;8.736;2022-07-30T15:20:01;27.20;70.90
28484;DHT22;15704;48.834;8.736;2022-07-30T15:23:46;27.00;72.00
28484;DHT22;15704;48.834;8.736;2022-07-30T15:27:28;26.90;72.30
28484;DHT22;15704;48.834;8.736;2022-07-30T15:31:15;27.10;71.90
28484;DHT22;15704;48.834;8.736;2022-07-30T15:34:58;27.20;70.00
28484;DHT22;15704;48.834;8.736;2022-07-30T15:38:41;27.20;70.90
28484;DHT22;15704;48.834;8.736;2022-07-30T15:42:27;27.10;70.10
28484;DHT22;15704;48.834;8.736;2022-07-30T15:46:11;26.90;70.10
28484;DHT22;15704;48.834;8.736;2022-07-30T15:49:54;26.70;70.40
28484;DHT22;15704;48.834;8.736;2022-07-30T15:53:37;27.10;70.50
28484;DHT22;15704;48.834;8.736;2022-07-30T15:57:20;26.70;70.40
28484;DHT22;15704;48.834;8.736;2022-07-30T16:01:04;26.60;70.30
28484;DHT22;15704;48.834;8.736;2022-07-30T16:04:47;26.60;70.90
28484;DHT22;15704;48.834;8.736;2022-07-30T16:08:33;26.70;69.60
28484;DHT22;15704;48.834;8.736;2022-07-30T16:12:16;26.30;69.10
28484;DHT22;15704;48.834;8.736;2022-07-30T16:15:58;26.70;69.20
28484;DHT22;15704;48.834;8.736;2022-07-30T16:19:43;27.20;66.90
28484;DHT22;15704;48.834;8.736;2022-07-30T16:23:26;27.70;66.50
28484;DHT22;15704;48.834;8.736;2022-07-30T16:27:17;27.60;65.30
28484;DHT22;15704;48.834;8.736;2022-07-30T16:31:00;27.60;64.70
28484;DHT22;15704;48.834;8.736;2022-07-30T16:34:44;27.40;66.20
28484;DHT22;15704;48.834;8.736;2022-07-30T16:38:26;27.10;66.40
28484;DHT22;15704;48.834;8.736;2022-07-30T16:42:09;26.70;66.60
28484;DHT22;15704;48.834;8.736;2022-07-30T16:45:52;27.00;66.60
28484;DHT22;15704;48.834;8.736;2022-07-30T16:49:35;27.30;65.70
28484;DHT22;15704;48.834;8.736;2022-07-30T16:53:19;27.30;64.80
28484;DHT22;15704;48.834;8.736;2022-07-30T16:57:02;27.10;65.40
28484;DHT22;15704;48.834;8.736;2022-07-30T17:00:51;26.60;65.80
28484;DHT22;15704;48.834;8.736;2022-07-30T17:04:33;26.70;66.90
28484;DHT22;15704;48.834;8.736;2022-07-30T17:08:18;26.50;67.00
28484;DHT22;15704;48.834;8.736;2022-07-30T17:12:06;26.10;67.20
28484;DHT22;15704;48.834;8.736;2022-07-30T17:15:52;25.90;68.00
28484;DHT22;15704;48.834;8.736;2022-07-30T17:19:35;26.20;67.70
28484;DHT22;15704;48.834;8.736;2022-07-30T17:23:19;26.00;67.20
28484;DHT22;15704;48.834;8.736;2022-07-30T17:27:02;25.80;68.70
28484;DHT22;15704;48.834;8.736;2022-07-30T17:30:45;25.60;68.70
28484;DHT22;15704;48.834;8.736;2022-07-30T17:34:27;26.00;68.20
28484;DHT22;15704;48.834;8.736;2022-07-30T17:38:10;26.00;68.10
28484;DHT22;15704;48.834;8.736;2022-07-30T17:41:54;26.30;67.80
28484;DHT22;15704;48.834;8.736;2022-07-30T17:45:43;26.10;67.90
28484;DHT22;15704;48.834;8.736;2022-07-30T17:49:26;25.60;68.50
28484;DHT22;15704;48.834;8.736;2022-07-30T17:53:08;25.60;69.00
28484;DHT22;15704;48.834;8.736;2022-07-30T17:56:51;25.40;69.30
28484;DHT22;15704;48.834;8.736;2022-07-30T18:00:35;25.30;69.10
28484;DHT22;15704;48.834;8.736;2022-07-30T18:04:17;25.10;70.00
28484;DHT22;15704;48.834;8.736;2022-07-30T18:08:00;25.20;70.00
28484;DHT22;15704;48.834;8.736;2022-07-30T18:11:43;25.40;70.00
28484;DHT22;15704;48.834;8.736;2022-07-30T18:15:26;25.30;69.20
28484;DHT22;15704;48.834;8.736;2022-07-30T18:19:17;25.20;69.00
28484;DHT22;15704;48.834;8.736;2022-07-30T18:23:08;25.30;69.10
28484;DHT22;15704;48.834;8.736;2022-07-30T18:26:55;25.10;69.20
28484;DHT22;15704;48.834;8.736;2022-07-30T18:30:38;25.00;69.70
28484;DHT22;15704;48.834;8.736;2022-07-30T18:34:23;25.00;69.90
28484;DHT22;15704;48.834;8.736;2022-07-30T18:38:05;24.90;70.30
28484;DHT22;15704;48.834;8.736;2022-07-30T18:41:48;24.70;70.40
28484;DHT22;15704;48.834;8.736;2022-07-30T18:45:31;24.60;71.00
28484;DHT22;15704;48.834;8.736;2022-07-30T18:49:17;24.40;71.60
28484;DHT22;15704;48.834;8.736;2022-07-30T18:53:19;24.20;71.60
28484;DHT22;15704;48.834;8.736;2022-07-30T18:57:02;24.10;72.00
28484;DHT22;15704;48.834;8.736;2022-07-30T19:00:45;24.00;72.50
28484;DHT22;15704;48.834;8.736;2022-07-30T19:04:28;23.90;73.10
28484;DHT22;15704;48.834;8.736;2022-07-30T19:08:11;23.80;73.50
28484;DHT22;15704;48.834;8.736;2022-07-30T19:11:55;23.60;73.90
28484;DHT22;15704;48.834;8.736;2022-07-30T19:15:38;23.50;74.50
28484;DHT22;15704;48.834;8.736;2022-07-30T19:19:20;23.40;75.20
28484;DHT22;15704;48.834;8.736;2022-07-30T19:23:04;23.30;75.40
28484;DHT22;15704;48.834;8.736;2022-07-30T19:26:47;23.20;76.30
28484;DHT22;15704;48.834;8.736;2022-07-30T19:30:32;23.20;75.70
28484;DHT22;15704;48.834;8.736;2022-07-30T19:34:14;23.10;76.30
28484;DHT22;15704;48.834;8.736;2022-07-30T19:37:57;23.00;76.90
28484;DHT22;15704;48.834;8.736;2022-07-30T19:41:40;22.70;78.80
28484;DHT22;15704;48.834;8.736;2022-07-30T19:45:26;22.60;79.90
28484;DHT22;15704;48.834;8.736;2022-07-30T19:49:29;22.50;77.60
28484;DHT22;15704;48.834;8.736;2022-07-30T19:53:15;22.50;79.70
28484;DHT22;15704;48.834;8.736;2022-07-30T19:56:57;22.40;80.60
28484;DHT22;15704;48.834;8.736;2022-07-30T20:00:40;22.40;80.70
28484;DHT22;15704;48.834;8.736;2022-07-30T20:04:30;22.40;81.80
28484;DHT22;15704;48.834;8.736;2022-07-30T20:08:13;22.30;81.50
28484;DHT22;15704;48.834;8.736;2022-07-30T20:12:06;22.20;81.80
28484;DHT22;15704;48.834;8.736;2022-07-30T20:15:49;22.00;82.30
28484;DHT22;15704;48.834;8.736;2022-07-30T20:19:36;21.80;82.80
28484;DHT22;15704;48.834;8.736;2022-07-30T20:23:28;21.70;83.80
28484;DHT22;15704;48.834;8.736;2022-07-30T20:27:11;21.60;84.30
28484;DHT22;15704;48.834;8.736;2022-07-30T20:31:14;21.50;84.80
28484;DHT22;15704;48.834;8.736;2022-07-30T20:35:00;21.40;85.80
28484;DHT22;15704;48.834;8.736;2022-07-30T20:38:43;21.30;84.80
28484;DHT22;15704;48.834;8.736;2022-07-30T20:42:27;21.20;85.10
28484;DHT22;15704;48.834;8.736;2022-07-30T20:46:10;21.00;85.70
28484;DHT22;15704;48.834;8.736;2022-07-30T20:49:55;20.80;87.00
28484;DHT22;15704;48.834;8.736;2022-07-30T20:53:39;20.60;86.60
28484;DHT22;15704;48.834;8.736;2022-07-30T20:57:26;20.40;86.70
28484;DHT22;15704;48.834;8.736;2022-07-30T21:01:28;20.30;86.90
28484;DHT22;15704;48.834;8.736;2022-07-30T21:05:11;20.20;87.40
28484;DHT22;15704;48.834;8.736;2022-07-30T21:09:01;20.10;88.50
28484;DHT22;15704;48.834;8.736;2022-07-30T21:12:44;20.00;88.20
28484;DHT22;15704;48.834;8.736;2022-07-30T21:16:47;20.00;88.40
28484;DHT22;15704;48.834;8.736;2022-07-30T21:20:35;20.00;88.20
28484;DHT22;15704;48.834;8.736;2022-07-30T21:24:20;20.10;88.10
28484;DHT22;15704;48.834;8.736;2022-07-30T21:28:05;20.10;87.80
28484;DHT22;15704;48.834;8.736;2022-07-30T21:31:47;20.10;87.70
28484;DHT22;15704;48.834;8.736;2022-07-30T21:35:43;20.00;87.50
28484;DHT22;15704;48.834;8.736;2022-07-30T21:39:27;19.90;87.80
28484;DHT22;15704;48.834;8.736;2022-07-30T21:43:10;19.80;88.30
28484;DHT22;15704;48.834;8.736;2022-07-30T21:46:53;19.60;88.90
28484;DHT22;15704;48.834;8.736;2022-07-30T21:50:37;19.60;88.40
28484;DHT22;15704;48.834;8.736;2022-07-30T21:54:20;19.50;88.90
28484;DHT22;15704;48.834;8.736;2022-07-30T21:58:13;19.50;88.90
28484;DHT22;15704;48.834;8.736;2022-07-30T22:02:07;19.60;89.70
28484;DHT22;15704;48.834;8.736;2022-07-30T22:05:59;19.70;89.50
28484;DHT22;15704;48.834;8.736;2022-07-30T22:09:42;19.70;89.20
28484;DHT22;15704;48.834;8.736;2022-07-30T22:13:26;19.80;89.10
28484;DHT22;15704;48.834;8.736;2022-07-30T22:17:10;19.80;88.90
28484;DHT22;15704;48.834;8.736;2022-07-30T22:21:04;19.90;88.90
28484;DHT22;15704;48.834;8.736;2022-07-30T22:24:47;19.90;89.10
28484;DHT22;15704;48.834;8.736;2022-07-30T22:28:31;19.90;89.30
28484;DHT22;15704;48.834;8.736;2022-07-30T22:32:14;19.80;90.20
28484;DHT22;15704;48.834;8.736;2022-07-30T22:52:44;18.90;91.20
28484;DHT22;15704;48.834;8.736;2022-07-30T22:56:37;18.60;91.90
28484;DHT22;15704;48.834;8.736;2022-07-30T23:00:21;18.50;92.20
28484;DHT22;15704;48.834;8.736;2022-07-30T23:04:08;18.40;92.40
28484;DHT22;15704;48.834;8.736;2022-07-30T23:07:53;18.40;92.50
28484;DHT22;15704;48.834;8.736;2022-07-30T23:11:36;18.40;92.50
28484;DHT22;15704;48.834;8.736;2022-07-30T23:15:19;18.30;92.70
28484;DHT22;15704;48.834;8.736;2022-07-30T23:19:04;18.20;92.80
28484;DHT22;15704;48.834;8.736;2022-07-30T23:22:47;18.20;92.90
28484;DHT22;15704;48.834;8.736;2022-07-30T23:26:32;18.20;92.80
28484;DHT22;15704;48.834;8.736;2022-07-30T23:30:17;18.20;93.00
28484;DHT22;15704;48.834;8.736;2022-07-30T23:33:59;18.20;92.90
28484;DHT22;15704;48.834;8.736;2022-07-30T23:37:45;18.20;92.90
28484;DHT22;15704;48.834;8.736;2022-07-30T23:41:31;18.20;92.90
28484;DHT22;15704;48.834;8.736;2022-07-30T23:45:13;18.30;93.00
28484;DHT22;15704;48.834;8.736;2022-07-30T23:48:56;18.30;92.90
28484;DHT22;15704;48.834;8.736;2022-07-30T23:52:39;18.40;92.80
28484;DHT22;15704;48.834;8.736;2022-07-30T23:56:22;18.50;92.80
